Time;durP1;ratioP1;P1;durP2;ratioP2;P2;SDS_P1;SDS_P2;PMS_P1;PMS_P2;Temp;Humidity;BMP_temperature;BMP_pressure;BME280_temperature;BME280_humidity;BME280_pressure;Samples;Min_cycle;Max_cycle;Signal;HPM_P1;HPM_P2
2022/11/20 00:09:01;;;;;;;1999.90;999.90;;;3.30;99.90;;;;;;6725771;88;20672;-80
2022/11/20 00:19:01;;;;;;;1999.90;999.90;;;3.40;99.90;;;;;;6725411;88;20196;-79
2022/11/20 00:29:03;;;;;;;1999.90;999.90;;;3.30;99.90;;;;;;6724803;88;20892;-79
2022/11/20 00:39:03;;;;;;;1999.90;999.90;;;3.10;99.90;;;;;;6721417;77;20384;-75
2022/11/20 00:49:04;;;;;;;1999.90;999.90;;;3.00;99.90;;;;;;6720462;88;20641;-75
2022/11/20 00:59:04;;;;;;;1999.90;999.90;;;3.10;99.90;;;;;;6713313;88;20201;-75
2022/11/20 01:09:07;;;;;;;1999.90;999.90;;;3.10;99.90;;;;;;6707981;88;20197;-75
2022/11/20 01:19:15;;;;;;;1999.90;999.90;;;3.20;99.90;;;;;;6710654;88;20244;-75
2022/11/20 01:29:22;;;;;;;1999.90;999.90;;;3.30;99.90;;;;;;6712799;88;20186;-75
2022/11/20 01:39:25;;;;;;;1999.90;999.90;;;3.20;99.90;;;;;;6720620;88;20237;-74
2022/11/20 01:49:34;;;;;;;1999.90;999.90;;;3.20;99.90;;;;;;6727753;88;20209;-74
2022/11/20 01:59:39;;;;;;;1999.90;999.90;;;3.30;99.90;;;;;;6725749;88;20189;-74
2022/11/20 02:09:39;;;;;;;1999.90;999.90;;;3.10;99.90;;;;;;6723566;88;20252;-75
2022/11/20 02:19:40;;;;;;;1999.90;999.90;;;3.20;99.90;;;;;;6716134;88;20353;-76
2022/11/20 02:29:57;;;;;;;1999.90;999.90;;;3.30;99.90;;;;;;6712683;88;20297;-75
2022/11/20 02:39:58;;;;;;;1999.90;999.90;;;3.30;99.90;;;;;;6710763;88;20202;-76
2022/11/20 02:49:58;;;;;;;1999.90;999.90;;;3.20;99.90;;;;;;6713764;88;20263;-75
2022/11/20 02:59:59;;;;;;;1999.90;999.90;;;3.30;99.90;;;;;;6709640;88;20308;-74
2022/11/20 03:10:00;;;;;;;1999.90;999.90;;;3.30;99.90;;;;;;6711056;88;20704;-75
2022/11/20 03:20:00;;;;;;;1999.90;999.90;;;3.20;99.90;;;;;;6722686;88;20166;-75
2022/11/20 03:30:01;;;;;;;1999.90;999.90;;;3.20;99.90;;;;;;6712231;88;20201;-74
2022/11/20 03:40:02;;;;;;;1999.90;999.90;;;3.20;99.90;;;;;;6710022;88;20178;-74
2022/11/20 03:50:03;;;;;;;1999.90;999.90;;;3.20;99.90;;;;;;6711538;88;20217;-75
2022/11/20 04:00:05;;;;;;;1999.90;999.90;;;3.20;99.90;;;;;;6712050;88;20694;-74
2022/11/20 04:10:06;;;;;;;1999.90;999.90;;;3.30;99.90;;;;;;6712159;88;20763;-74
2022/11/20 04:20:07;;;;;;;1999.90;999.90;;;3.30;99.90;;;;;;6710689;88;20211;-74
2022/11/20 04:30:08;;;;;;;1999.90;999.90;;;3.30;99.90;;;;;;6712639;88;20219;-73
2022/11/20 04:40:08;;;;;;;1999.90;999.90;;;3.30;99.90;;;;;;6709594;88;20206;-75
2022/11/20 04:50:09;;;;;;;1999.90;999.90;;;3.40;99.90;;;;;;6712822;88;20357;-74
2022/11/20 05:00:10;;;;;;;1999.90;999.90;;;3.40;99.90;;;;;;6713592;88;20207;-74
2022/11/20 05:10:11;;;;;;;1999.90;999.90;;;3.30;99.90;;;;;;6721038;88;20217;-73
2022/11/20 05:20:11;;;;;;;1999.90;999.90;;;3.40;99.90;;;;;;6734038;88;20178;-73
2022/11/20 05:30:13;;;;;;;1999.90;999.90;;;3.40;99.90;;;;;;6715371;88;20666;-74
2022/11/20 05:40:13;;;;;;;1999.90;999.90;;;3.50;99.90;;;;;;6713455;88;20230;-75
2022/11/20 05:50:15;;;;;;;1999.90;999.90;;;3.50;99.90;;;;;;6711689;88;20252;-75
2022/11/20 06:00:16;;;;;;;1999.90;999.90;;;3.40;99.90;;;;;;6709685;88;20752;-75
2022/11/20 06:10:16;;;;;;;1999.90;999.90;;;3.50;99.90;;;;;;6717935;88;20206;-74
2022/11/20 06:20:17;;;;;;;1999.90;999.90;;;3.50;99.90;;;;;;6711361;88;20186;-74
2022/11/20 06:30:17;;;;;;;1999.90;999.90;;;3.60;99.90;;;;;;6707917;88;20746;-74
2022/11/20 06:40:18;;;;;;;1999.90;999.90;;;3.60;99.90;;;;;;6710137;88;20244;-75
2022/11/20 06:50:18;;;;;;;1999.90;999.90;;;3.60;99.90;;;;;;6712726;88;20219;-73
2022/11/20 07:00:19;;;;;;;1999.90;999.90;;;3.80;99.90;;;;;;6719691;88;21165;-75
2022/11/20 07:10:19;;;;;;;1999.90;999.90;;;3.80;99.90;;;;;;6716732;88;20771;-76
2022/11/20 07:20:20;;;;;;;1999.90;999.90;;;3.80;99.90;;;;;;6714180;88;20200;-77
2022/11/20 07:30:20;;;;;;;1999.90;999.90;;;3.70;99.90;;;;;;6716036;88;20225;-75
2022/11/20 07:40:21;;;;;;;1999.90;999.90;;;3.70;99.90;;;;;;6715687;88;20538;-76
2022/11/20 07:50:21;;;;;;;1999.90;999.90;;;3.80;99.90;;;;;;6717895;88;20245;-75
2022/11/20 08:00:23;;;;;;;1999.90;999.90;;;3.70;99.90;;;;;;6714164;88;20519;-75
2022/11/20 08:10:23;;;;;;;1999.90;999.90;;;3.60;99.90;;;;;;6717988;88;20697;-78
2022/11/20 08:20:24;;;;;;;1999.90;999.90;;;3.90;99.90;;;;;;6723049;88;20228;-75
2022/11/20 08:30:28;;;;;;;1999.90;999.90;;;3.80;99.90;;;;;;6715643;88;20213;-74
2022/11/20 08:40:28;;;;;;;1999.90;999.90;;;4.10;99.90;;;;;;6708430;88;20700;-74
2022/11/20 08:50:31;;;;;;;1999.90;999.90;;;4.30;99.90;;;;;;6710226;88;20201;-74
2022/11/20 09:00:32;;;;;;;1999.90;999.90;;;4.50;99.90;;;;;;6709541;88;20248;-74
2022/11/20 09:10:33;;;;;;;1999.90;999.90;;;4.40;99.90;;;;;;6711363;88;20525;-74
2022/11/20 09:20:34;;;;;;;1999.90;999.90;;;4.40;99.90;;;;;;6712318;88;20242;-73
2022/11/20 09:30:34;;;;;;;1999.90;999.90;;;4.80;99.90;;;;;;6713779;88;20234;-74
2022/11/20 09:40:39;;;;;;;1999.90;999.90;;;4.80;99.90;;;;;;6711317;88;20252;-77
2022/11/20 09:50:55;;;;;;;1999.90;999.90;;;4.90;99.90;;;;;;6713674;88;20830;-75
2022/11/20 10:01:09;;;;;;;1999.90;999.90;;;4.90;99.90;;;;;;6712129;88;20243;-76
2022/11/20 10:11:27;;;;;;;1999.90;999.90;;;5.20;99.90;;;;;;6719406;88;20812;-76
2022/11/20 10:21:35;;;;;;;1999.90;999.90;;;5.70;99.90;;;;;;6710141;88;20642;-74
2022/11/20 10:31:59;;;;;;;1999.90;999.90;;;6.10;99.90;;;;;;6709809;88;20226;-74
2022/11/20 10:42:00;;;;;;;1999.90;999.90;;;5.90;99.90;;;;;;6710451;88;20321;-75
2022/11/20 10:52:24;;;;;;;1999.90;999.90;;;5.80;99.90;;;;;;6710701;88;20197;-75
2022/11/20 11:02:51;;;;;;;1999.90;999.90;;;5.80;99.90;;;;;;6710613;88;20696;-76
2022/11/20 11:12:51;;;;;;;1999.90;999.90;;;5.90;99.90;;;;;;6710418;88;20591;-76
2022/11/20 11:22:55;;;;;;;1999.90;999.90;;;5.80;99.90;;;;;;6717979;88;20186;-76
2022/11/20 11:33:08;;;;;;;1999.90;999.90;;;6.00;99.90;;;;;;6714049;88;20674;-75
2022/11/20 11:53:47;;;;;;;1999.90;999.90;;;6.00;99.90;;;;;;6712561;88;20196;-75
2022/11/20 12:04:01;;;;;;;1999.90;999.90;;;5.80;99.90;;;;;;6707948;88;20212;-75
2022/11/20 12:14:18;;;;;;;1999.90;999.90;;;5.80;99.90;;;;;;6712493;88;20193;-74
2022/11/20 12:24:44;;;;;;;1999.90;999.90;;;6.00;99.90;;;;;;6709805;88;20206;-75
2022/11/20 12:35:05;;;;;;;1999.90;999.90;;;6.20;99.90;;;;;;6739940;76;20239;-81
2022/11/20 12:45:31;;;;;;;1999.90;999.90;;;6.30;99.90;;;;;;6767985;88;20222;-79
2022/11/20 12:56:02;;;;;;;1999.90;999.90;;;6.40;99.90;;;;;;6740870;88;20247;-80
2022/11/20 13:06:13;;;;;;;1999.90;999.90;;;6.50;99.90;;;;;;6747815;88;20177;-78
2022/11/20 13:16:32;;;;;;;1999.90;999.90;;;6.50;99.90;;;;;;6753377;88;20219;-80
2022/11/20 13:26:33;;;;;;;1999.90;999.90;;;6.60;99.90;;;;;;6743964;88;20181;-80
2022/11/20 13:36:36;;;;;;;1999.90;999.90;;;6.60;99.90;;;;;;6756141;88;20799;-81
2022/11/20 13:46:46;;;;;;;1999.90;999.90;;;6.70;99.90;;;;;;6741568;88;20209;-81
2022/11/20 13:57:17;;;;;;;1999.90;999.90;;;6.60;99.90;;;;;;6739803;88;20204;-83
2022/11/20 14:07:20;;;;;;;1999.90;999.90;;;6.60;99.90;;;;;;6747395;88;20248;-82
2022/11/20 14:17:35;;;;;;;1999.90;999.90;;;6.60;99.90;;;;;;6738686;88;20206;-81
2022/11/20 14:27:41;;;;;;;1999.90;999.90;;;6.80;99.90;;;;;;6740485;88;20190;-79
2022/11/20 14:37:42;;;;;;;1999.90;999.90;;;6.80;99.90;;;;;;6741030;88;21000;-79
2022/11/20 14:47:43;;;;;;;1999.90;999.90;;;6.90;99.90;;;;;;6743196;88;20182;-78
2022/11/20 14:57:55;;;;;;;1999.90;999.90;;;6.90;99.90;;;;;;6740922;88;20209;-80
2022/11/20 15:08:08;;;;;;;1999.90;999.90;;;6.90;99.90;;;;;;6754968;88;20240;-80
2022/11/20 15:18:18;;;;;;;1999.90;999.90;;;6.90;99.90;;;;;;6742108;88;20299;-80
2022/11/20 15:28:20;;;;;;;1999.90;999.90;;;7.00;99.90;;;;;;6741303;88;20218;-79
2022/11/20 15:38:20;;;;;;;1999.90;999.90;;;7.10;99.90;;;;;;6744889;88;20189;-79
2022/11/20 15:48:31;;;;;;;1999.90;999.90;;;7.00;99.90;;;;;;6749106;88;20188;-80
2022/11/20 15:58:31;;;;;;;1999.90;999.90;;;6.80;99.90;;;;;;6747402;88;20333;-77
2022/11/20 16:08:32;;;;;;;1999.90;999.90;;;6.60;99.90;;;;;;6751473;88;20200;-82
2022/11/20 16:18:33;;;;;;;1999.90;999.90;;;6.40;99.90;;;;;;6758644;88;20216;-78
2022/11/20 16:28:33;;;;;;;1999.90;999.90;;;6.50;99.90;;;;;;6750653;88;20182;-80
2022/11/20 16:38:34;;;;;;;1999.90;999.90;;;6.50;99.90;;;;;;6755503;88;20145;-81
2022/11/20 16:48:34;;;;;;;1999.90;999.90;;;6.30;99.90;;;;;;6754113;88;20192;-81
2022/11/20 16:58:35;;;;;;;1999.90;999.90;;;6.20;99.90;;;;;;6751684;88;20181;-81
2022/11/20 17:08:36;;;;;;;1999.90;999.90;;;6.20;99.90;;;;;;6746731;88;20208;-80
2022/11/20 17:18:37;;;;;;;1999.90;999.90;;;6.10;99.90;;;;;;6756733;88;20170;-79
2022/11/20 17:28:38;;;;;;;1999.90;999.90;;;6.20;99.90;;;;;;6741464;88;20315;-79
2022/11/20 17:38:38;;;;;;;1999.90;999.90;;;6.20;99.90;;;;;;6749842;88;20682;-80
2022/11/20 17:48:43;;;;;;;1999.90;999.90;;;6.20;99.90;;;;;;6755373;88;20217;-81
2022/11/20 17:58:44;;;;;;;1999.90;999.90;;;6.20;99.90;;;;;;6742527;88;20251;-74
2022/11/20 18:08:45;;;;;;;1999.90;999.90;;;6.20;99.90;;;;;;6754553;88;20183;-79
2022/11/20 18:18:46;;;;;;;1999.90;999.90;;;6.30;99.90;;;;;;6764043;88;20732;-79
2022/11/20 18:28:46;;;;;;;1999.90;999.90;;;6.40;99.90;;;;;;6743792;88;20214;-78
2022/11/20 18:38:50;;;;;;;1999.90;999.90;;;6.50;99.90;;;;;;6758232;87;20204;-78
2022/11/20 18:48:50;;;;;;;1999.90;999.90;;;6.60;99.90;;;;;;6747671;88;20189;-78
2022/11/20 18:58:51;;;;;;;1999.90;999.90;;;6.70;99.90;;;;;;6748039;88;20250;-77
2022/11/20 19:08:52;;;;;;;1999.90;999.90;;;6.80;99.90;;;;;;6747248;87;20300;-78
2022/11/20 19:18:52;;;;;;;1999.90;999.90;;;7.00;99.90;;;;;;6747952;88;20199;-78
2022/11/20 19:28:53;;;;;;;1999.90;999.90;;;7.10;99.90;;;;;;6741680;88;20224;-77
2022/11/20 19:38:54;;;;;;;1999.90;999.90;;;7.30;99.90;;;;;;6746784;88;20493;-77
2022/11/20 19:48:57;;;;;;;1999.90;999.90;;;7.40;99.90;;;;;;6749854;88;20204;-77
2022/11/20 19:58:58;;;;;;;1999.90;999.90;;;7.30;99.90;;;;;;6750067;88;20270;-78
2022/11/20 20:09:04;;;;;;;1999.90;999.90;;;7.40;99.90;;;;;;6746553;88;20217;-77
2022/11/20 20:19:05;;;;;;;;;;;7.50;99.90;;;;;;6755681;88;20198;-79
2022/11/20 20:29:05;;;;;;;1999.90;999.90;;;7.70;99.90;;;;;;6747863;88;20048;-79
2022/11/20 20:39:06;;;;;;;1999.90;999.90;;;7.80;99.90;;;;;;6747222;88;20309;-77
2022/11/20 20:49:07;;;;;;;1999.90;999.90;;;8.00;99.90;;;;;;6749779;88;20489;-78
2022/11/20 20:59:07;;;;;;;1999.90;999.90;;;8.00;99.90;;;;;;6746372;88;20199;-77
2022/11/20 21:09:08;;;;;;;1999.90;999.90;;;8.00;99.90;;;;;;6743937;87;20204;-75
2022/11/20 21:19:09;;;;;;;1999.90;999.90;;;7.90;99.90;;;;;;6752933;88;20196;-77
2022/11/20 21:29:10;;;;;;;1999.90;999.90;;;8.00;99.90;;;;;;6748363;87;20676;-75
2022/11/20 21:39:12;;;;;;;1999.90;999.90;;;8.00;99.90;;;;;;6747327;87;20243;-77
2022/11/20 21:49:14;;;;;;;1999.90;999.90;;;7.90;99.90;;;;;;6741392;88;20217;-76
2022/11/20 21:59:14;;;;;;;1999.90;999.90;;;7.90;99.90;;;;;;6744007;87;20315;-76
2022/11/20 22:09:15;;;;;;;1999.90;999.90;;;7.90;99.90;;;;;;6746199;88;20172;-76
2022/11/20 22:19:17;;;;;;;1999.90;999.90;;;7.90;99.90;;;;;;6745036;87;20200;-76
2022/11/20 22:29:20;;;;;;;1999.90;999.90;;;7.90;99.90;;;;;;6743984;87;20192;-76
2022/11/20 22:39:21;;;;;;;1999.90;999.90;;;7.90;99.90;;;;;;6743616;88;20192;-76
2022/11/20 22:49:22;;;;;;;1999.90;999.90;;;8.00;99.90;;;;;;6740949;88;20671;-76
2022/11/20 22:59:22;;;;;;;1999.90;999.90;;;8.00;99.90;;;;;;6744059;87;20204;-76
2022/11/20 23:09:23;;;;;;;1999.90;999.90;;;8.00;99.90;;;;;;6745334;87;20168;-76
2022/11/20 23:19:24;;;;;;;1999.90;999.90;;;8.00;99.90;;;;;;6742245;88;20192;-76
2022/11/20 23:29:24;;;;;;;1999.90;999.90;;;8.00;99.90;;;;;;6740012;88;20214;-78
2022/11/20 23:39:25;;;;;;;1999.90;999.90;;;8.00;99.90;;;;;;6742226;88;20514;-77
2022/11/20 23:49:25;;;;;;;1999.90;999.90;;;7.90;99.90;;;;;;6741705;88;20202;-76
2022/11/20 23:59:26;;;;;;;1999.90;999.90;;;7.70;99.90;;;;;;6757260;88;20206;-76
